Time;durP1;ratioP1;P1;durP2;ratioP2;P2;SDS_P1;SDS_P2;PMS_P1;PMS_P2;Temp;Humidity;BMP_temperature;BMP_pressure;BME280_temperature;BME280_humidity;BME280_pressure;Samples;Min_cycle;Max_cycle;Signal;HPM_P1;HPM_P2
2022/04/23 00:02:17;;;;;;;29.98;16.40;;;;;;;3.50;87.00;98773.81;8516833;27;20095;-75
2022/04/23 00:06:18;;;;;;;27.30;16.58;;;;;;;3.47;87.14;98768.25;8517335;27;20043;-75
2022/04/23 00:10:19;;;;;;;31.00;15.98;;;;;;;3.43;87.34;98757.31;8524002;27;20046;-75
2022/04/23 00:14:20;;;;;;;35.97;15.82;;;;;;;3.37;87.40;98759.19;8486784;27;20050;-75
2022/04/23 00:18:21;;;;;;;29.23;17.73;;;;;;;3.31;87.45;98767.47;8515471;27;20053;-75
2022/04/23 00:22:22;;;;;;;29.38;16.60;;;;;;;3.21;87.61;98764.81;8524875;27;20039;-75
2022/04/23 00:26:23;;;;;;;29.50;16.02;;;;;;;3.15;87.72;98757.88;8520950;27;20484;-75
2022/04/23 00:30:24;;;;;;;29.27;16.65;;;;;;;3.06;88.05;98751.50;8548107;27;20044;-75
2022/04/23 00:34:26;;;;;;;32.30;17.85;;;;;;;2.97;88.23;98749.34;8514117;27;20062;-75
2022/04/23 00:38:27;;;;;;;44.17;22.42;;;;;;;2.88;88.09;98750.97;8533592;27;20050;-75
2022/04/23 00:42:28;;;;;;;34.67;19.08;;;;;;;2.82;88.37;98753.88;8543959;27;20465;-75
2022/04/23 00:46:29;;;;;;;30.77;16.27;;;;;;;2.68;88.33;98745.63;8527841;27;20099;-75
2022/04/23 00:50:30;;;;;;;29.08;16.73;;;;;;;2.55;88.22;98751.47;8505372;27;20516;-75
2022/04/23 00:54:32;;;;;;;30.08;17.05;;;;;;;2.46;88.25;98742.41;8469235;27;20054;-75
2022/04/23 00:58:33;;;;;;;26.70;16.60;;;;;;;2.34;88.31;98739.19;8484268;27;20082;-75
2022/04/23 01:02:36;;;;;;;32.92;17.70;;;;;;;2.26;88.58;98742.38;8515814;27;20043;-75
2022/04/23 01:06:37;;;;;;;35.33;18.70;;;;;;;2.21;88.67;98739.69;8499485;27;20047;-75
2022/04/23 01:10:39;;;;;;;34.85;18.63;;;;;;;2.15;88.62;98746.88;8507866;27;20062;-75
2022/04/23 01:15:11;;;;;;;28.45;17.25;;;;;;;2.08;88.90;98736.47;8481335;27;20051;-75
2022/04/23 01:19:13;;;;;;;29.98;16.60;;;;;;;2.02;88.78;98736.69;8524386;27;20556;-75
2022/04/23 01:23:14;;;;;;;33.67;17.88;;;;;;;1.95;88.79;98736.97;8504883;27;20058;-75
2022/04/23 01:27:15;;;;;;;34.25;18.13;;;;;;;1.89;88.65;98738.00;8527568;27;20042;-74
2022/04/23 01:31:16;;;;;;;37.35;19.60;;;;;;;1.86;88.39;98733.19;8517073;27;20034;-75
2022/04/23 01:35:17;;;;;;;37.22;19.88;;;;;;;1.81;88.62;98719.84;8470841;27;20046;-74
2022/04/23 01:39:18;;;;;;;37.67;20.73;;;;;;;1.74;88.29;98727.31;8482998;27;20179;-75
2022/04/23 01:43:19;;;;;;;41.15;20.08;;;;;;;1.69;88.64;98737.94;8487458;27;20043;-75
2022/04/23 01:47:19;;;;;;;38.85;20.17;;;;;;;1.63;88.60;98728.31;8516489;27;20043;-75
2022/04/23 01:51:20;;;;;;;37.20;20.88;;;;;;;1.62;88.48;98721.38;8508662;27;20118;-75
2022/04/23 01:55:22;;;;;;;36.60;20.35;;;;;;;1.61;89.06;98719.78;8502918;27;20067;-75
2022/04/23 01:59:23;;;;;;;43.22;21.88;;;;;;;1.57;88.94;98724.84;8530513;27;20038;-75
2022/04/23 02:03:24;;;;;;;40.38;21.98;;;;;;;1.60;89.76;98718.19;8512558;27;20056;-75
2022/04/23 02:07:25;;;;;;;44.10;23.27;;;;;;;1.57;89.81;98724.03;8472493;27;20043;-75
2022/04/23 02:11:25;;;;;;;48.03;24.48;;;;;;;1.60;90.68;98712.84;8523650;27;20062;-75
2022/04/23 02:15:27;;;;;;;44.47;24.50;;;;;;;1.63;91.47;98723.00;8511163;27;20042;-75
2022/04/23 02:19:28;;;;;;;46.10;25.88;;;;;;;1.65;91.96;98715.53;8512292;27;20051;-75
2022/04/23 02:23:29;;;;;;;55.85;28.95;;;;;;;1.63;92.08;98720.34;8525108;27;20038;-75
2022/04/23 02:27:42;;;;;;;51.60;27.70;;;;;;;1.69;93.13;98716.63;8518102;27;20487;-75
2022/04/23 02:31:43;;;;;;;56.30;29.83;;;;;;;1.78;93.56;98709.75;8522489;27;20094;-75
2022/04/23 02:35:44;;;;;;;51.42;28.83;;;;;;;1.82;93.81;98705.50;8527818;27;20090;-75
2022/04/23 02:39:45;;;;;;;60.60;31.48;;;;;;;1.84;94.31;98708.69;8522903;27;20111;-74
2022/04/23 02:43:46;;;;;;;59.28;30.70;;;;;;;1.89;94.41;98698.06;8520815;27;20492;-75
2022/04/23 02:47:52;;;;;;;61.35;31.88;;;;;;;1.93;94.70;98712.44;8525054;27;20039;-75
2022/04/23 02:51:53;;;;;;;58.35;30.77;;;;;;;1.91;94.78;98711.91;8472187;27;20057;-75
2022/04/23 02:55:57;;;;;;;64.85;32.00;;;;;;;1.86;94.63;98711.88;8513395;27;20051;-75
2022/04/23 02:59:58;;;;;;;56.53;29.58;;;;;;;1.86;94.89;98717.22;8526040;27;20167;-74
2022/04/23 03:03:59;;;;;;;63.30;31.67;;;;;;;1.77;94.54;98718.78;8458438;27;20153;-74
2022/04/23 03:08:00;;;;;;;62.15;33.05;;;;;;;1.73;94.54;98723.03;8512609;27;20047;-75
2022/04/23 03:12:01;;;;;;;69.13;35.03;;;;;;;1.72;95.01;98731.28;8526070;27;20496;-74
2022/04/23 03:16:02;;;;;;;66.18;32.58;;;;;;;1.70;94.81;98728.88;8514952;27;20039;-75
2022/04/23 03:20:04;;;;;;;57.33;32.42;;;;;;;1.62;94.30;98726.72;8528217;27;20476;-75
2022/04/23 03:24:05;;;;;;;67.15;32.38;;;;;;;1.54;94.90;98735.19;8537777;27;20051;-75
2022/04/23 03:28:07;;;;;;;60.22;32.15;;;;;;;1.46;94.25;98727.69;8527523;27;20043;-75
2022/04/23 03:32:08;;;;;;;62.88;32.75;;;;;;;1.41;94.15;98730.34;8496119;27;20053;-75
2022/04/23 03:36:09;;;;;;;66.20;33.78;;;;;;;1.38;93.94;98725.50;8511931;27;20046;-75
2022/04/23 03:40:11;;;;;;;68.78;33.38;;;;;;;1.34;94.16;98735.06;8497944;27;20134;-76
2022/04/23 03:44:12;;;;;;;76.05;38.25;;;;;;;1.37;94.20;98739.91;8535280;27;20057;-75
2022/04/23 03:48:14;;;;;;;79.75;39.17;;;;;;;1.37;94.43;98745.22;8539250;27;20456;-75
2022/04/23 03:52:15;;;;;;;79.70;40.42;;;;;;;1.36;94.70;98743.63;8529666;27;20116;-75
2022/04/23 03:56:16;;;;;;;77.70;37.80;;;;;;;1.35;94.56;98742.00;8520695;27;20066;-75
2022/04/23 04:00:20;;;;;;;77.43;38.90;;;;;;;1.31;94.31;98747.03;8472372;27;20062;-75
2022/04/23 04:04:21;;;;;;;88.38;43.33;;;;;;;1.33;94.28;98744.09;8482226;27;20051;-75
2022/04/23 04:08:22;;;;;;;82.38;42.67;;;;;;;1.34;94.46;98751.03;8508811;27;20051;-75
2022/04/23 04:12:22;;;;;;;96.72;48.53;;;;;;;1.42;94.80;98747.91;8525744;27;20050;-75
2022/04/23 04:16:24;;;;;;;106.03;52.85;;;;;;;1.56;95.84;98749.03;8516873;27;20113;-75
2022/04/23 04:20:24;;;;;;;116.57;56.53;;;;;;;1.68;96.33;98752.28;8507800;27;20038;-75
2022/04/23 04:24:27;;;;;;;113.03;54.85;;;;;;;1.77;96.21;98750.72;8517947;27;20051;-75
2022/04/23 04:28:30;;;;;;;112.80;55.67;;;;;;;1.80;96.04;98750.19;8470291;27;20074;-74
2022/04/23 04:32:31;;;;;;;105.03;53.97;;;;;;;1.87;95.88;98748.09;8525103;27;20106;-75
2022/04/23 04:36:34;;;;;;;99.05;51.97;;;;;;;1.93;95.67;98754.25;8524026;27;20377;-75
2022/04/23 04:40:35;;;;;;;106.20;55.80;;;;;;;1.98;95.31;98752.41;8500872;27;20561;-75
2022/04/23 04:44:36;;;;;;;111.63;55.10;;;;;;;2.06;94.98;98754.56;8480521;27;20073;-75
2022/04/23 04:48:37;;;;;;;124.50;56.58;;;;;;;2.15;94.67;98762.06;8531923;27;20047;-76
2022/04/23 04:52:38;;;;;;;109.10;53.88;;;;;;;2.25;94.24;98762.09;8531215;27;20148;-75
2022/04/23 04:56:39;;;;;;;108.25;53.90;;;;;;;2.35;94.25;98751.44;8488571;27;20046;-75
2022/04/23 05:00:40;;;;;;;91.78;48.85;;;;;;;2.44;94.09;98760.50;8493127;27;20042;-75
2022/04/23 05:04:41;;;;;;;92.72;49.17;;;;;;;2.50;94.28;98754.13;8520621;27;20047;-76
2022/04/23 05:08:42;;;;;;;106.63;53.35;;;;;;;2.59;93.93;98763.22;8524196;27;20134;-75
2022/04/23 05:12:43;;;;;;;110.25;54.50;;;;;;;2.71;94.18;98755.75;8529232;27;20051;-75
2022/04/23 05:16:44;;;;;;;100.93;50.38;;;;;;;2.83;95.06;98756.28;8497086;27;20138;-75
2022/04/23 05:20:45;;;;;;;98.78;49.17;;;;;;;2.94;95.62;98757.91;8524664;27;20030;-76
2022/04/23 05:24:45;;;;;;;81.55;39.63;;;;;;;3.11;95.61;98754.16;8530329;27;20481;-75
2022/04/23 05:28:46;;;;;;;72.72;37.97;;;;;;;3.21;95.51;98764.81;8526415;27;20081;-75
2022/04/23 05:32:47;;;;;;;83.50;38.95;;;;;;;3.31;95.30;98776.28;8526143;27;20450;-74
2022/04/23 05:36:48;;;;;;;84.32;40.25;;;;;;;3.48;94.96;98765.31;8529223;27;20503;-75
2022/04/23 05:40:49;;;;;;;83.07;42.30;;;;;;;3.63;94.84;98767.13;8513269;27;20058;-76
2022/04/23 05:44:51;;;;;;;90.60;44.22;;;;;;;3.74;94.41;98774.84;8508790;27;20046;-77
2022/04/23 05:48:51;;;;;;;86.72;45.45;;;;;;;3.85;94.05;98774.81;8504023;27;20051;-77
2022/04/23 05:52:52;;;;;;;92.50;44.97;;;;;;;3.96;93.61;98785.19;8522074;27;20547;-77
2022/04/23 05:56:53;;;;;;;91.45;43.83;;;;;;;4.11;94.02;98778.97;8530054;27;20056;-77
2022/04/23 06:00:54;;;;;;;92.45;44.90;;;;;;;4.24;93.60;98773.03;8531605;27;20043;-76
2022/04/23 06:04:55;;;;;;;80.65;41.25;;;;;;;4.36;93.54;98765.47;8535040;27;20095;-77
2022/04/23 06:08:57;;;;;;;77.90;39.40;;;;;;;4.56;93.15;98770.69;8502702;27;20092;-76
2022/04/23 06:12:57;;;;;;;84.88;40.13;;;;;;;4.75;92.56;98767.38;8558292;27;20177;-77
2022/04/23 06:16:59;;;;;;;64.20;33.88;;;;;;;4.91;91.76;98782.25;8535138;27;20046;-77
2022/04/23 06:21:00;;;;;;;60.38;33.50;;;;;;;5.12;91.03;98772.97;8533807;27;20039;-77
2022/04/23 06:25:01;;;;;;;61.20;30.60;;;;;;;5.33;89.91;98769.03;8528044;27;20073;-77
2022/04/23 06:29:02;;;;;;;46.13;28.08;;;;;;;5.55;88.62;98773.09;8513189;27;20035;-77
2022/04/23 06:33:03;;;;;;;37.67;21.90;;;;;;;5.71;87.19;98779.91;8514731;27;20077;-77
2022/04/23 06:37:05;;;;;;;42.05;21.33;;;;;;;5.88;86.00;98780.25;8532653;27;20102;-84
2022/04/23 06:41:06;;;;;;;38.97;21.67;;;;;;;6.06;85.37;98771.47;8525665;27;20134;-77
2022/04/23 06:45:07;;;;;;;32.25;19.30;;;;;;;6.22;84.16;98764.84;8470556;27;20054;-77
2022/04/23 06:49:08;;;;;;;35.33;18.08;;;;;;;6.36;82.44;98760.34;8544428;27;20053;-77
2022/04/23 06:53:09;;;;;;;34.03;17.98;;;;;;;6.53;81.63;98775.13;8530986;27;20038;-77
2022/04/23 06:57:10;;;;;;;32.20;18.25;;;;;;;6.68;81.26;98777.59;8499565;27;20468;-77
2022/04/23 07:01:11;;;;;;;30.52;17.73;;;;;;;6.84;80.84;98767.44;8532000;27;20042;-77
2022/04/23 07:05:12;;;;;;;28.70;17.02;;;;;;;6.99;79.86;98772.56;8531036;27;20054;-77
2022/04/23 07:09:13;;;;;;;35.60;17.83;;;;;;;7.24;78.31;98768.66;8532608;27;20045;-76
2022/04/23 07:13:15;;;;;;;31.13;15.68;;;;;;;7.38;77.15;98769.50;8560755;27;20065;-77
2022/04/23 07:17:16;;;;;;;26.05;15.30;;;;;;;7.54;77.40;98765.44;8533169;27;20046;-76
2022/04/23 07:21:17;;;;;;;20.83;12.95;;;;;;;7.64;76.13;98767.94;8526042;27;20039;-78
2022/04/23 07:25:18;;;;;;;23.67;12.85;;;;;;;7.78;74.84;98763.34;8525908;27;20047;-78
2022/04/23 07:29:19;;;;;;;19.55;11.55;;;;;;;7.95;73.80;98758.19;8519076;27;20046;-78
2022/04/23 07:37:39;;;;;;;22.25;12.27;;;;;;;8.34;72.73;98759.56;8531707;27;20098;-78
2022/04/23 07:41:40;;;;;;;20.25;11.55;;;;;;;8.44;71.88;98753.97;8513974;27;20058;-78
2022/04/23 07:45:43;;;;;;;20.23;11.02;;;;;;;8.58;70.67;98754.72;8511618;27;20139;-77
2022/04/23 07:49:44;;;;;;;18.50;10.32;;;;;;;8.64;70.83;98750.81;8508250;27;20151;-78
2022/04/23 07:53:45;;;;;;;18.92;10.75;;;;;;;8.76;70.65;98751.06;8455107;27;20154;-78
2022/04/23 07:57:46;;;;;;;15.27;10.30;;;;;;;9.15;69.11;98752.28;8496503;27;20051;-77
2022/04/23 08:01:49;;;;;;;18.77;10.43;;;;;;;9.34;67.84;98755.56;8448210;27;20053;-78
2022/04/23 08:05:50;;;;;;;14.25;9.05;;;;;;;9.38;68.16;98751.16;8439616;28;20460;-78
2022/04/23 08:09:51;;;;;;;14.90;9.15;;;;;;;9.51;67.68;98739.50;8457430;28;20047;-77
2022/04/23 08:13:52;;;;;;;15.90;9.73;;;;;;;9.63;66.79;98747.78;8455802;28;20059;-78
2022/04/23 08:17:53;;;;;;;18.73;10.65;;;;;;;9.80;66.46;98740.88;8458698;28;20144;-78
2022/04/23 08:21:54;;;;;;;14.75;9.55;;;;;;;9.99;64.33;98733.34;8463714;28;20082;-77
2022/04/23 08:25:56;;;;;;;13.55;8.98;;;;;;;10.21;63.25;98741.31;8455200;28;20040;-78
2022/04/23 08:34:16;;;;;;;15.88;10.23;;;;;;;10.39;62.71;98737.56;8461498;28;20543;-78
2022/04/23 08:38:17;;;;;;;13.98;9.52;;;;;;;10.50;62.90;98732.63;8437834;28;20105;-78
2022/04/23 08:42:19;;;;;;;15.05;8.70;;;;;;;10.71;61.75;98732.81;8446387;27;20047;-78
2022/04/23 08:46:20;;;;;;;21.85;11.25;;;;;;;10.81;61.42;98716.28;8482320;27;20386;-79
2022/04/23 08:50:22;;;;;;;35.88;17.02;;;;;;;10.96;60.98;98726.56;8465270;27;20055;-78
2022/04/23 08:54:23;;;;;;;19.40;11.80;;;;;;;11.21;60.76;98725.72;8506824;27;20051;-78
2022/04/23 08:58:24;;;;;;;14.27;9.90;;;;;;;11.35;61.56;98715.53;8521675;27;20094;-78
2022/04/23 09:02:30;;;;;;;15.48;9.43;;;;;;;11.47;59.41;98712.16;8517611;27;20039;-78
2022/04/23 09:06:34;;;;;;;14.52;9.90;;;;;;;11.51;59.55;98717.72;8535028;27;20051;-78
2022/04/23 09:10:57;;;;;;;14.02;9.80;;;;;;;11.71;57.51;98722.41;8520116;27;20121;-79
2022/04/23 09:23:39;;;;;;;16.00;9.70;;;;;;;11.68;58.26;98717.66;8535363;27;20050;-78
2022/04/23 09:24:08;;;;;;;14.55;9.98;;;;;;;11.77;57.32;98699.50;8501191;27;20412;-78
2022/04/23 09:28:23;;;;;;;14.05;9.38;;;;;;;12.12;56.65;98700.88;8537028;27;20035;-78
2022/04/23 09:32:27;;;;;;;16.67;10.30;;;;;;;12.12;56.69;98710.91;8551465;27;20050;-79
2022/04/23 09:36:48;;;;;;;17.25;10.05;;;;;;;12.14;55.68;98714.88;8490493;27;20047;-79
2022/04/23 09:40:57;;;;;;;18.65;10.73;;;;;;;12.35;55.90;98703.28;8487290;27;20081;-78
2022/04/23 09:45:17;;;;;;;18.23;10.82;;;;;;;13.02;56.52;98700.28;8462716;28;20062;-80
2022/04/23 09:49:21;;;;;;;17.83;11.48;;;;;;;13.46;54.64;98704.97;8462591;28;20044;-78
2022/04/23 09:53:22;;;;;;;15.95;9.50;;;;;;;13.36;55.55;98699.19;8476593;27;20066;-78
2022/04/23 09:57:24;;;;;;;13.75;9.15;;;;;;;13.33;53.68;98692.50;8482948;27;20050;-77
2022/04/23 10:01:25;;;;;;;14.88;9.38;;;;;;;13.27;52.01;98701.19;8497320;27;20051;-79
2022/04/23 10:05:27;;;;;;;17.15;9.13;;;;;;;13.37;50.87;98695.34;8462988;27;20044;-78
2022/04/23 10:09:30;;;;;;;10.50;7.68;;;;;;;13.50;52.98;98699.63;8467670;27;20040;-78
2022/04/23 10:13:33;;;;;;;10.63;8.10;;;;;;;13.34;52.55;98701.41;8512941;27;20050;-78
2022/04/23 10:17:35;;;;;;;13.98;9.02;;;;;;;13.17;53.05;98701.59;8505416;27;20511;-78
2022/04/23 10:21:45;;;;;;;12.45;9.00;;;;;;;13.00;53.17;98703.34;8549364;27;20034;-77
2022/04/23 10:25:52;;;;;;;12.13;8.65;;;;;;;12.89;52.56;98696.75;8472415;27;20134;-77
2022/04/23 10:29:55;;;;;;;16.02;8.02;;;;;;;13.00;51.05;98703.34;8482598;27;20034;-77
2022/04/23 10:33:56;;;;;;;13.35;8.68;;;;;;;13.79;52.78;98696.72;8515899;27;20054;-77
2022/04/23 10:37:59;;;;;;;13.25;8.50;;;;;;;14.58;50.20;98678.97;8537675;27;20070;-78
2022/04/23 10:42:02;;;;;;;10.55;7.57;;;;;;;15.15;48.14;98696.84;8500926;27;20051;-78
2022/04/23 10:46:11;;;;;;;12.15;8.82;;;;;;;14.61;46.20;98697.28;8532246;27;20038;-79
2022/04/23 10:50:15;;;;;;;12.88;8.95;;;;;;;14.07;48.08;98693.28;8520986;27;20046;-77
2022/04/23 10:54:19;;;;;;;13.45;9.38;;;;;;;13.73;49.48;98687.22;8545993;27;20153;-78
2022/04/23 10:58:24;;;;;;;13.88;10.05;;;;;;;13.81;49.66;98682.81;8513814;27;20042;-78
2022/04/23 11:02:25;;;;;;;15.95;10.43;;;;;;;14.02;49.63;98679.97;8531639;27;20046;-78
2022/04/23 11:15:16;;;;;;;12.82;9.20;;;;;;;15.02;47.00;98676.28;8518601;27;20517;-77
2022/04/23 11:19:19;;;;;;;10.45;8.40;;;;;;;15.07;46.18;98679.53;8533499;27;20050;-78
2022/04/23 11:23:20;;;;;;;14.43;9.00;;;;;;;15.00;46.59;98678.56;8547450;27;20427;-77
2022/04/23 11:27:27;;;;;;;13.13;8.70;;;;;;;14.84;46.93;98670.38;8552268;27;20047;-77
2022/04/23 11:31:28;;;;;;;14.77;9.95;;;;;;;14.73;46.17;98670.06;8449701;28;20055;-78
2022/04/23 11:35:29;;;;;;;15.73;10.13;;;;;;;14.56;47.03;98664.13;8442667;28;20068;-76
2022/04/23 11:39:30;;;;;;;19.08;10.80;;;;;;;14.57;46.87;98666.50;8428933;28;20036;-78
2022/04/23 11:43:34;;;;;;;12.88;9.35;;;;;;;14.60;46.58;98673.97;8430876;28;20060;-77
2022/04/23 11:47:36;;;;;;;15.48;9.27;;;;;;;14.52;46.53;98680.34;8420443;28;20502;-78
2022/04/23 11:51:40;;;;;;;13.30;8.65;;;;;;;14.45;45.31;98680.13;8402578;28;20063;-77
2022/04/23 11:55:48;;;;;;;12.55;9.15;;;;;;;14.47;45.31;98667.00;8434219;28;20094;-78
2022/04/23 11:59:52;;;;;;;11.13;8.10;;;;;;;14.54;46.51;98661.00;8464204;27;20103;-78
2022/04/23 12:03:55;;;;;;;14.70;8.85;;;;;;;14.82;46.56;98660.97;8563090;27;20042;-78
2022/04/23 12:07:57;;;;;;;15.52;10.25;;;;;;;14.86;46.75;98656.44;8502100;27;20171;-79
2022/04/23 12:11:59;;;;;;;13.60;10.48;;;;;;;14.61;46.58;98651.09;8543485;27;20047;-78
2022/04/23 12:16:00;;;;;;;19.63;11.60;;;;;;;14.53;46.48;98654.75;8530589;27;20047;-77
2022/04/23 12:20:10;;;;;;;19.48;11.07;;;;;;;14.47;47.80;98649.91;8512515;27;20103;-77
2022/04/23 12:24:29;;;;;;;13.60;9.60;;;;;;;14.74;45.50;98644.50;8473868;27;20803;-77
2022/04/23 12:41:55;;;;;;;12.23;9.25;;;;;;;16.03;43.87;98627.44;8343743;28;20067;-77
2022/04/23 12:46:05;;;;;;;13.98;8.05;;;;;;;16.74;43.02;98620.78;8356436;28;20044;-77
2022/04/23 12:50:07;;;;;;;11.45;8.05;;;;;;;17.28;39.01;98613.19;8355657;28;20113;-76
2022/04/23 12:54:14;;;;;;;13.27;7.20;;;;;;;17.42;38.54;98604.44;8356533;28;20052;-77
2022/04/23 12:58:16;;;;;;;11.18;7.53;;;;;;;17.72;38.86;98607.25;8356988;28;20572;-77
2022/04/23 13:02:17;;;;;;;13.43;8.95;;;;;;;17.87;38.34;98598.09;8356720;28;20722;-77
2022/04/23 13:10:38;;;;;;;14.63;7.38;;;;;;;16.68;40.08;98608.56;8439248;27;20126;-77
2022/04/23 13:14:39;;;;;;;15.52;9.50;;;;;;;16.58;40.20;98592.78;8509895;27;20050;-77
2022/04/23 13:18:40;;;;;;;10.60;6.57;;;;;;;16.90;39.36;98586.00;8519968;27;20412;-76
2022/04/23 13:22:43;;;;;;;12.32;7.25;;;;;;;16.90;37.11;98577.81;8456913;27;20058;-76
2022/04/23 13:26:44;;;;;;;8.90;6.38;;;;;;;17.82;36.71;98568.38;8569691;27;20403;-76
2022/04/23 13:30:45;;;;;;;12.32;7.63;;;;;;;19.17;35.68;98567.19;8541216;27;20133;-76
2022/04/23 13:34:45;;;;;;;9.93;6.45;;;;;;;20.13;34.05;98571.38;8534136;27;20053;-76
2022/04/23 13:38:47;;;;;;;10.35;6.05;;;;;;;21.23;31.56;98550.50;8512291;27;20130;-76
2022/04/23 13:42:48;;;;;;;8.13;6.40;;;;;;;22.67;31.81;98547.75;8508321;27;20388;-77
2022/04/23 13:46:51;;;;;;;10.88;7.20;;;;;;;23.24;29.83;98555.63;8500729;27;20072;-78
2022/04/23 13:50:56;;;;;;;11.50;6.60;;;;;;;24.29;28.88;98547.50;8531335;27;20055;-77
2022/04/23 13:54:57;;;;;;;7.90;5.88;;;;;;;25.15;27.89;98528.56;8503163;27;20047;-78
2022/04/23 13:58:58;;;;;;;8.32;6.10;;;;;;;25.95;26.76;98535.84;8526657;27;20473;-78
2022/04/23 14:11:39;;;;;;;8.68;6.15;;;;;;;27.80;24.80;98527.63;8509941;27;20095;-77
2022/04/23 14:15:39;;;;;;;8.35;5.50;;;;;;;27.76;24.29;98521.38;8556654;27;20075;-76
2022/04/23 14:19:41;;;;;;;7.32;5.10;;;;;;;27.86;23.58;98531.44;8519944;27;20146;-77
2022/04/23 14:23:41;;;;;;;6.82;4.78;;;;;;;28.23;23.10;98518.13;8533345;27;20046;-78
2022/04/23 14:27:43;;;;;;;6.18;4.47;;;;;;;28.12;22.57;98516.44;8533549;27;20090;-77
2022/04/23 14:31:44;;;;;;;7.60;4.90;;;;;;;27.21;23.33;98503.78;8531236;27;20061;-78
2022/04/23 14:35:46;;;;;;;8.07;4.47;;;;;;;27.35;23.10;98497.09;8515072;27;20126;-78
2022/04/23 14:39:46;;;;;;;7.68;5.65;;;;;;;26.60;24.40;98503.63;8531589;27;20107;-78
2022/04/23 14:43:49;;;;;;;6.53;4.45;;;;;;;26.58;24.27;98499.75;8514797;27;20404;-77
2022/04/23 14:47:51;;;;;;;8.18;4.35;;;;;;;27.22;23.47;98494.25;8516652;27;20050;-78
2022/04/23 14:56:12;;;;;;;6.13;4.40;;;;;;;27.07;23.24;98498.56;8559555;27;20042;-77
2022/04/23 15:00:14;;;;;;;6.68;4.30;;;;;;;27.31;22.91;98491.63;8503822;27;20054;-77
2022/04/23 15:04:15;;;;;;;11.27;5.50;;;;;;;27.16;22.27;98484.91;8487563;27;20054;-77
2022/04/23 15:08:16;;;;;;;9.80;4.88;;;;;;;28.07;21.82;98491.97;8478623;27;20122;-76
2022/04/23 15:12:17;;;;;;;7.57;4.88;;;;;;;28.18;21.67;98496.47;8548889;27;20095;-82
2022/04/23 15:16:19;;;;;;;11.43;6.60;;;;;;;28.10;21.78;98495.84;8562888;27;20141;-77
2022/04/23 15:20:20;;;;;;;5.75;4.45;;;;;;;27.73;22.44;98491.75;8462570;27;20051;-78
2022/04/23 15:24:21;;;;;;;6.82;5.10;;;;;;;28.10;21.97;98502.19;8497864;27;20043;-77
2022/04/23 15:28:23;;;;;;;8.52;5.38;;;;;;;28.12;21.76;98490.69;8497331;27;20075;-77
2022/04/23 15:32:24;;;;;;;6.53;4.70;;;;;;;28.58;21.35;98489.28;8519901;27;20038;-77
2022/04/23 15:36:25;;;;;;;7.15;4.35;;;;;;;27.92;22.25;98490.78;8543845;27;20051;-78
2022/04/23 15:40:28;;;;;;;5.70;4.25;;;;;;;25.69;23.90;98495.25;8533256;27;20407;-77
2022/04/23 15:44:29;;;;;;;5.97;4.57;;;;;;;23.22;26.29;98489.13;8541161;27;20050;-77
2022/04/23 15:48:30;;;;;;;8.93;4.85;;;;;;;21.42;28.17;98497.91;8557671;27;20129;-77
2022/04/23 15:52:31;;;;;;;11.00;8.23;;;;;;;20.53;29.81;98491.59;8562125;27;20038;-77
2022/04/23 15:56:35;;;;;;;12.88;8.25;;;;;;;19.89;30.88;98495.28;8464709;27;20407;-76
2022/04/23 16:00:36;;;;;;;34.03;22.00;;;;;;;19.61;31.65;98491.25;8536754;27;20489;-76
2022/04/23 16:04:37;;;;;;;9.43;5.43;;;;;;;20.85;30.40;98480.66;8476064;27;20075;-76
2022/04/23 16:08:38;;;;;;;8.55;5.93;;;;;;;22.26;28.57;98485.06;8492012;27;20134;-76
2022/04/23 16:12:39;;;;;;;15.18;7.30;;;;;;;23.05;27.64;98490.88;8515165;27;20047;-76
2022/04/23 16:16:40;;;;;;;8.38;6.38;;;;;;;22.39;27.80;98487.38;8502893;27;20516;-77
2022/04/23 16:20:42;;;;;;;8.60;6.00;;;;;;;20.99;29.97;98485.38;8450010;27;20077;-76
2022/04/23 16:24:46;;;;;;;13.82;6.20;;;;;;;20.17;31.06;98487.19;8481331;27;20046;-76
2022/04/23 16:28:47;;;;;;;8.55;5.93;;;;;;;19.36;32.51;98490.28;8478870;27;20516;-76
2022/04/23 16:32:48;;;;;;;9.73;6.05;;;;;;;18.94;33.12;98486.06;8510613;27;20203;-77
2022/04/23 16:49:50;;;;;;;8.23;5.13;;;;;;;17.56;34.51;98500.09;8502756;27;20043;-76
2022/04/23 16:53:52;;;;;;;9.77;4.78;;;;;;;17.27;34.77;98499.72;8471388;27;20137;-76
2022/04/23 16:57:52;;;;;;;7.03;4.35;;;;;;;16.89;35.20;98499.88;8508484;27;20077;-76
2022/04/23 17:01:54;;;;;;;18.77;6.85;;;;;;;16.51;36.00;98494.50;8507713;27;20142;-76
2022/04/23 17:05:54;;;;;;;9.45;6.20;;;;;;;16.23;36.95;98501.00;8511992;27;20058;-76
2022/04/23 17:09:56;;;;;;;11.35;4.93;;;;;;;16.14;37.82;98497.72;8505142;27;20046;-75
2022/04/23 17:13:57;;;;;;;10.90;5.68;;;;;;;15.84;39.47;98499.44;8502146;27;20136;-75
2022/04/23 17:17:59;;;;;;;8.52;4.93;;;;;;;15.55;41.05;98498.84;8520852;27;20043;-76
2022/04/23 17:22:00;;;;;;;7.93;4.70;;;;;;;15.22;42.08;98512.06;8532221;27;20047;-76
2022/04/23 17:26:02;;;;;;;10.43;4.63;;;;;;;14.88;42.98;98512.78;8511600;27;20050;-77
2022/04/23 17:30:04;;;;;;;6.90;4.30;;;;;;;14.56;44.12;98512.75;8499202;27;20061;-75
2022/04/23 17:34:05;;;;;;;11.55;5.63;;;;;;;14.36;45.16;98513.75;8445950;27;20504;-75
2022/04/23 17:42:27;;;;;;;7.45;5.03;;;;;;;13.84;46.94;98517.38;8544931;27;20046;-76
2022/04/23 17:46:27;;;;;;;8.35;5.15;;;;;;;13.59;47.69;98518.53;8527226;27;20035;-76
2022/04/23 17:50:29;;;;;;;12.25;6.20;;;;;;;13.27;48.67;98517.56;8497513;27;20104;-76
2022/04/23 17:54:30;;;;;;;14.35;6.65;;;;;;;13.05;49.47;98509.88;8498296;27;20086;-75
2022/04/23 17:58:31;;;;;;;90.53;35.20;;;;;;;12.89;49.92;98517.91;8499120;27;20054;-76
2022/04/23 18:11:15;;;;;;;14.32;8.25;;;;;;;12.17;52.35;98524.72;8525694;27;20047;-76
2022/04/23 18:15:16;;;;;;;15.82;8.15;;;;;;;11.93;53.06;98524.63;8521554;27;20054;-76
2022/04/23 18:19:16;;;;;;;20.65;7.82;;;;;;;11.63;54.14;98525.81;8532237;27;20039;-75
2022/04/23 18:23:19;;;;;;;14.20;7.72;;;;;;;11.48;54.74;98529.06;8513373;27;20481;-75
2022/04/23 18:27:20;;;;;;;16.60;9.23;;;;;;;11.27;55.42;98540.63;8526372;27;20030;-75
2022/04/23 18:31:21;;;;;;;24.13;12.18;;;;;;;11.06;56.04;98539.00;8483331;27;20455;-75
2022/04/23 18:35:22;;;;;;;23.58;12.95;;;;;;;10.89;56.70;98534.47;8478674;27;20078;-75
2022/04/23 18:39:23;;;;;;;24.10;12.45;;;;;;;10.73;57.14;98538.84;8474256;27;20518;-75
2022/04/23 18:43:24;;;;;;;19.95;10.52;;;;;;;10.61;57.36;98538.72;8466094;27;20043;-74
2022/04/23 18:47:25;;;;;;;14.15;9.07;;;;;;;10.42;58.09;98537.16;8507716;27;20047;-75
2022/04/23 18:51:27;;;;;;;14.82;8.45;;;;;;;10.33;58.41;98527.50;8503617;27;20039;-75
2022/04/23 18:55:29;;;;;;;18.67;7.97;;;;;;;10.17;58.72;98532.59;8505255;27;20039;-75
2022/04/23 18:59:34;;;;;;;13.32;7.40;;;;;;;10.07;59.32;98530.19;8507705;27;20039;-76
2022/04/23 19:03:36;;;;;;;20.83;12.20;;;;;;;10.06;59.73;98523.22;8456969;27;20060;-75
2022/04/23 19:07:37;;;;;;;139.68;60.92;;;;;;;10.03;59.90;98523.88;8470189;27;20126;-75
2022/04/23 19:11:40;;;;;;;68.47;30.67;;;;;;;9.89;60.16;98513.22;8504196;27;20054;-75
2022/04/23 19:15:41;;;;;;;37.88;21.23;;;;;;;9.75;60.51;98518.78;8523309;27;20248;-75
2022/04/23 19:19:43;;;;;;;46.67;25.52;;;;;;;9.70;60.82;98510.84;8479814;27;20077;-75
2022/04/23 19:28:07;;;;;;;25.60;14.20;;;;;;;9.48;61.64;98502.91;8512780;27;20039;-75
2022/04/23 19:32:09;;;;;;;16.05;10.63;;;;;;;9.38;61.74;98503.22;8550455;27;20566;-75
2022/04/23 19:36:15;;;;;;;17.48;9.65;;;;;;;9.26;61.96;98495.75;8494636;27;20053;-76
2022/04/23 19:40:16;;;;;;;18.45;10.88;;;;;;;9.15;62.29;98499.03;8501246;27;20084;-76
2022/04/23 19:44:17;;;;;;;20.83;11.82;;;;;;;9.05;62.57;98493.94;8505776;27;20042;-76
2022/04/23 19:48:18;;;;;;;20.58;11.48;;;;;;;8.96;62.79;98485.06;8525123;27;20522;-75
2022/04/23 19:52:20;;;;;;;15.50;9.23;;;;;;;8.87;62.94;98488.53;8470420;27;20047;-75
2022/04/23 19:56:23;;;;;;;17.67;9.65;;;;;;;8.77;62.90;98488.81;8523291;27;20051;-75
2022/04/23 20:00:26;;;;;;;17.95;10.15;;;;;;;8.66;63.11;98487.50;8527997;27;20050;-74
2022/04/23 20:04:28;;;;;;;14.15;8.70;;;;;;;8.58;63.45;98485.56;8527500;27;20085;-74
2022/04/23 20:08:30;;;;;;;14.63;9.57;;;;;;;8.48;63.61;98475.88;8527553;27;20062;-74
2022/04/23 20:12:31;;;;;;;24.58;13.07;;;;;;;8.38;64.07;98475.34;8527856;27;20466;-74